createdAt,value
2022-09-20T00:02:52.378Z,11.03
2022-09-20T00:07:52.367Z,10.97
2022-09-20T00:12:52.379Z,11.03
2022-09-20T00:17:52.391Z,11.01
2022-09-20T00:22:52.392Z,11.02
2022-09-20T00:27:52.354Z,11.04
2022-09-20T00:32:52.389Z,10.98
2022-09-20T00:37:52.363Z,10.90
2022-09-20T00:42:52.400Z,10.92
2022-09-20T00:47:52.398Z,10.80
2022-09-20T00:52:52.375Z,10.82
2022-09-20T00:57:52.412Z,10.77
2022-09-20T01:02:52.404Z,10.85
2022-09-20T01:07:52.400Z,10.86
2022-09-20T01:12:52.573Z,10.90
2022-09-20T01:17:52.412Z,10.94
2022-09-20T01:22:52.398Z,11.07
2022-09-20T01:27:52.475Z,11.09
2022-09-20T01:32:52.406Z,11.05
2022-09-20T01:37:52.440Z,11.00
2022-09-20T01:42:52.396Z,10.91
2022-09-20T01:47:52.414Z,10.90
2022-09-20T01:52:52.423Z,10.75
2022-09-20T01:57:52.431Z,10.77
2022-09-20T02:02:52.536Z,10.75
2022-09-20T02:07:52.445Z,10.74
2022-09-20T02:12:52.400Z,10.72
2022-09-20T02:17:52.432Z,10.66
2022-09-20T02:22:52.513Z,10.50
2022-09-20T02:27:52.439Z,10.42
2022-09-20T02:32:52.477Z,10.35
2022-09-20T02:37:52.406Z,10.43
2022-09-20T02:42:52.453Z,10.44
2022-09-20T02:47:52.466Z,10.45
2022-09-20T02:52:52.451Z,10.46
2022-09-20T02:57:52.519Z,10.50
2022-09-20T03:07:52.488Z,10.38
2022-09-20T03:12:52.427Z,10.29
2022-09-20T03:17:52.459Z,10.30
2022-09-20T03:22:52.449Z,10.33
2022-09-20T03:27:52.432Z,10.21
2022-09-20T03:37:52.464Z,10.22
2022-09-20T03:42:52.474Z,10.23
2022-09-20T03:47:52.455Z,10.29
2022-09-20T03:52:52.545Z,10.24
2022-09-20T03:57:52.451Z,10.31
2022-09-20T04:02:52.503Z,10.37
2022-09-20T04:07:52.477Z,10.28
2022-09-20T04:12:52.497Z,10.39
2022-09-20T04:17:52.464Z,10.38
2022-09-20T04:22:52.470Z,10.41
2022-09-20T04:27:52.494Z,10.34
2022-09-20T04:32:52.502Z,10.29
2022-09-20T04:37:52.491Z,10.20
2022-09-20T04:42:52.466Z,10.18
2022-09-20T04:47:52.496Z,10.10
2022-09-20T04:52:52.491Z,10.03
2022-09-20T04:57:52.568Z,10.11
2022-09-20T05:12:52.518Z,10.08
2022-09-20T05:17:52.522Z,10.18
2022-09-20T05:22:52.523Z,10.24
2022-09-20T05:27:52.523Z,10.29
2022-09-20T05:32:52.484Z,10.38
2022-09-20T05:37:52.508Z,10.40
2022-09-20T05:42:52.528Z,10.44
2022-09-20T05:47:52.522Z,10.55
2022-09-20T05:52:52.585Z,10.65
2022-09-20T05:57:52.554Z,10.74
2022-09-20T06:02:52.534Z,10.85
2022-09-20T06:07:52.501Z,10.88
2022-09-20T06:12:52.541Z,10.91
2022-09-20T06:17:52.495Z,11.02
2022-09-20T06:22:52.532Z,11.10
2022-09-20T06:27:52.535Z,11.26
2022-09-20T06:32:52.543Z,11.30
2022-09-20T06:37:52.528Z,11.27
2022-09-20T06:42:52.550Z,11.29
2022-09-20T06:47:52.548Z,11.40
2022-09-20T06:52:52.541Z,11.46
2022-09-20T06:57:52.571Z,11.59
2022-09-20T07:02:52.553Z,11.83
2022-09-20T07:07:52.520Z,11.91
2022-09-20T07:12:52.551Z,11.97
2022-09-20T07:17:52.516Z,12.04
2022-09-20T07:22:52.556Z,12.14
2022-09-20T07:27:52.575Z,12.03
2022-09-20T07:32:52.550Z,12.10
2022-09-20T07:37:52.612Z,12.22
2022-09-20T07:42:56.118Z,12.34
2022-09-20T07:52:52.785Z,12.37
2022-09-20T07:57:52.588Z,12.42
2022-09-20T08:02:52.624Z,12.72
2022-09-20T08:07:52.565Z,13.42
2022-09-20T08:17:52.583Z,14.97
2022-09-20T08:23:12.552Z,14.37
2022-09-20T08:27:52.574Z,14.20
2022-09-20T08:32:52.607Z,13.84
2022-09-20T08:37:52.815Z,14.06
2022-09-20T08:42:52.692Z,15.46
2022-09-20T08:47:57.800Z,15.82
2022-09-20T08:52:52.604Z,16.21
2022-09-20T08:57:52.617Z,16.33
2022-09-20T09:02:52.626Z,15.37
2022-09-20T09:07:52.647Z,15.17
2022-09-20T09:12:52.641Z,16.05
2022-09-20T09:17:52.622Z,15.61
2022-09-20T09:22:52.663Z,14.85
2022-09-20T09:27:52.645Z,14.96
2022-09-20T09:32:52.592Z,16.63
2022-09-20T09:37:52.641Z,16.38
2022-09-20T09:42:52.648Z,16.53
2022-09-20T09:47:52.631Z,16.44
2022-09-20T09:52:52.621Z,15.95
2022-09-20T09:57:52.629Z,15.31
2022-09-20T10:02:52.644Z,15.23
2022-09-20T10:07:52.617Z,15.01
2022-09-20T10:12:52.681Z,15.16
2022-09-20T10:17:52.647Z,15.70
2022-09-20T10:23:24.098Z,15.42
2022-09-20T10:27:52.640Z,15.91
2022-09-20T10:37:52.634Z,15.85
2022-09-20T10:42:52.678Z,15.66
2022-09-20T10:47:52.632Z,15.67
2022-09-20T10:52:52.649Z,15.59
2022-09-20T10:57:52.677Z,15.45
2022-09-20T11:07:52.654Z,15.46
2022-09-20T11:12:52.696Z,15.48
2022-09-20T11:17:52.679Z,15.20
2022-09-20T11:22:52.978Z,15.04
2022-09-20T11:27:52.652Z,15.15
2022-09-20T11:32:52.687Z,15.41
2022-09-20T11:37:52.679Z,15.66
2022-09-20T11:42:52.707Z,15.90
2022-09-20T11:47:54.898Z,16.07
2022-09-20T11:52:52.676Z,16.20
2022-09-20T11:57:52.672Z,16.26
2022-09-20T12:02:52.938Z,15.92
2022-09-20T12:07:52.705Z,16.03
2022-09-20T12:12:52.725Z,15.84
2022-09-20T12:17:52.716Z,15.58
2022-09-20T12:22:52.716Z,15.69
2022-09-20T12:27:52.673Z,15.59
2022-09-20T12:32:52.707Z,15.67
2022-09-20T12:37:52.796Z,15.68
2022-09-20T12:42:53.054Z,15.72
2022-09-20T12:47:52.717Z,15.64
2022-09-20T12:52:52.965Z,15.42
2022-09-20T12:57:52.742Z,15.33
2022-09-20T13:02:52.739Z,15.35
2022-09-20T13:07:52.734Z,15.26
2022-09-20T13:12:54.518Z,14.99
2022-09-20T13:17:52.738Z,14.91
2022-09-20T13:22:55.953Z,14.92
2022-09-20T13:32:52.735Z,14.87
2022-09-20T13:37:52.709Z,15.00
2022-09-20T13:42:52.763Z,15.15
2022-09-20T13:47:52.743Z,15.19
2022-09-20T13:52:52.754Z,15.14
2022-09-20T13:57:52.719Z,15.51
2022-09-20T14:02:52.752Z,15.56
2022-09-20T14:07:52.772Z,15.74
2022-09-20T14:12:52.741Z,15.84
2022-09-20T14:17:52.751Z,15.92
2022-09-20T14:22:56.086Z,15.88
2022-09-20T14:27:52.771Z,15.69
2022-09-20T14:32:52.777Z,15.52
2022-09-20T14:37:52.804Z,15.27
2022-09-20T14:42:52.796Z,15.11
2022-09-20T14:47:52.782Z,15.14
2022-09-20T14:52:52.789Z,15.16
2022-09-20T14:57:52.797Z,15.13
2022-09-20T15:02:52.808Z,15.06
2022-09-20T15:07:52.839Z,14.93
2022-09-20T15:12:52.761Z,14.75
2022-09-20T15:17:52.787Z,14.60
2022-09-20T15:22:52.780Z,14.58
2022-09-20T15:27:52.796Z,14.48
2022-09-20T15:32:52.766Z,14.23
2022-09-20T15:37:52.806Z,14.14
2022-09-20T15:42:52.880Z,13.90
2022-09-20T15:47:52.824Z,13.83
2022-09-20T15:52:55.765Z,13.88
2022-09-20T15:57:52.804Z,13.77
2022-09-20T16:02:52.781Z,13.72
2022-09-20T16:07:52.814Z,13.68
2022-09-20T16:12:52.827Z,13.65
2022-09-20T16:17:52.797Z,13.70
2022-09-20T16:22:52.818Z,13.75
2022-09-20T16:27:52.794Z,13.58
2022-09-20T16:32:52.873Z,13.52
2022-09-20T16:37:52.806Z,13.36
2022-09-20T16:42:52.842Z,13.29
2022-09-20T16:47:52.836Z,13.22
2022-09-20T16:57:52.819Z,13.21
2022-09-20T17:02:52.837Z,13.08
2022-09-20T17:07:52.844Z,13.04
2022-09-20T17:12:52.817Z,12.84
2022-09-20T17:17:52.846Z,12.93
2022-09-20T17:22:52.845Z,12.87
2022-09-20T17:27:52.823Z,12.75
2022-09-20T17:32:52.844Z,12.70
2022-09-20T17:37:52.823Z,12.60
2022-09-20T17:42:52.858Z,12.69
2022-09-20T17:47:52.865Z,12.58
2022-09-20T17:52:52.855Z,12.45
2022-09-20T17:57:52.858Z,12.35
2022-09-20T18:02:52.860Z,12.39
2022-09-20T18:07:52.857Z,12.25
2022-09-20T18:12:52.856Z,12.27
2022-09-20T18:17:54.585Z,12.19
2022-09-20T18:22:52.859Z,12.10
2022-09-20T18:27:52.886Z,12.04
2022-09-20T18:32:52.885Z,11.95
2022-09-20T18:37:52.873Z,11.93
2022-09-20T18:42:52.857Z,11.83
2022-09-20T18:47:52.896Z,11.76
2022-09-20T18:52:52.866Z,11.81
2022-09-20T18:57:52.904Z,11.75
2022-09-20T19:02:52.946Z,11.67
2022-09-20T19:07:52.884Z,11.66
2022-09-20T19:12:52.893Z,11.60
2022-09-20T19:17:52.890Z,11.66
2022-09-20T19:22:52.904Z,11.59
2022-09-20T19:27:52.920Z,11.57
2022-09-20T19:32:52.901Z,11.63
2022-09-20T19:37:52.880Z,11.50
2022-09-20T19:42:52.973Z,11.40
2022-09-20T19:47:52.903Z,11.31
2022-09-20T19:52:52.896Z,11.24
2022-09-20T19:57:52.934Z,11.15
2022-09-20T20:02:52.941Z,10.96
2022-09-20T20:07:52.904Z,10.98
2022-09-20T20:12:52.923Z,10.95
2022-09-20T20:17:52.929Z,10.87
2022-09-20T20:22:52.892Z,10.93
2022-09-20T20:27:52.936Z,10.79
2022-09-20T20:32:52.903Z,10.96
2022-09-20T20:37:52.935Z,10.80
2022-09-20T20:42:52.929Z,10.89
2022-09-20T20:47:52.947Z,10.91
2022-09-20T20:52:53.034Z,10.90
2022-09-20T20:57:52.949Z,10.79
2022-09-20T21:02:52.988Z,10.71
2022-09-20T21:07:53.002Z,10.66
2022-09-20T21:12:52.946Z,10.51
2022-09-20T21:17:52.957Z,10.48
2022-09-20T21:22:52.954Z,10.36
2022-09-20T21:27:52.959Z,10.42
2022-09-20T21:37:54.952Z,10.41
2022-09-20T21:42:52.936Z,10.14
2022-09-20T21:47:52.968Z,10.24
2022-09-20T21:52:52.960Z,10.18
2022-09-20T21:57:52.946Z,9.84
2022-09-20T22:02:52.973Z,9.73
2022-09-20T22:07:52.972Z,9.72
2022-09-20T22:12:52.949Z,9.76
2022-09-20T22:17:52.968Z,9.84
2022-09-20T22:22:52.985Z,9.76
2022-09-20T22:27:52.967Z,9.59
2022-09-20T22:32:53.043Z,9.39
2022-09-20T22:42:53.127Z,9.47
2022-09-20T22:47:52.990Z,9.36
2022-09-20T22:52:52.960Z,9.22
2022-09-20T22:57:52.983Z,9.21
2022-09-20T23:02:52.997Z,9.31
2022-09-20T23:07:52.971Z,9.37
2022-09-20T23:12:52.972Z,9.41
2022-09-20T23:17:53.006Z,9.46
2022-09-20T23:22:52.986Z,9.40
2022-09-20T23:27:53.017Z,9.35
2022-09-20T23:32:52.987Z,9.53
2022-09-20T23:37:53.007Z,9.75
2022-09-20T23:42:53.001Z,9.77
2022-09-20T23:47:53.032Z,9.73
2022-09-20T23:52:52.992Z,9.70
2022-09-20T23:57:53.017Z,9.81
